sensor_id;sensor_type;location;lat;lon;timestamp;temperature;humidity
15690;DHT22;7945;48.816;11.506;2024-03-07T00:01:05;7.60;99.90
15690;DHT22;7945;48.816;11.506;2024-03-07T00:03:33;7.60;99.90
15690;DHT22;7945;48.816;11.506;2024-03-07T00:05:59;7.60;99.90
15690;DHT22;7945;48.816;11.506;2024-03-07T00:08:29;7.60;99.90
15690;DHT22;7945;48.816;11.506;2024-03-07T00:10:56;7.60;99.90
15690;DHT22;7945;48.816;11.506;2024-03-07T00:13:23;7.50;99.90
15690;DHT22;7945;48.816;11.506;2024-03-07T00:15:49;7.60;99.90
15690;DHT22;7945;48.816;11.506;2024-03-07T00:18:16;7.60;99.90
15690;DHT22;7945;48.816;11.506;2024-03-07T00:20:43;7.50;99.90
15690;DHT22;7945;48.816;11.506;2024-03-07T00:23:10;7.50;99.90
15690;DHT22;7945;48.816;11.506;2024-03-07T00:25:38;7.50;99.90
15690;DHT22;7945;48.816;11.506;2024-03-07T00:28:05;7.50;99.90
15690;DHT22;7945;48.816;11.506;2024-03-07T00:30:32;7.40;99.90
15690;DHT22;7945;48.816;11.506;2024-03-07T00:32:59;7.40;99.90
15690;DHT22;7945;48.816;11.506;2024-03-07T00:35:26;7.30;99.90
15690;DHT22;7945;48.816;11.506;2024-03-07T00:37:53;7.30;99.90
15690;DHT22;7945;48.816;11.506;2024-03-07T00:40:20;7.30;99.90
15690;DHT22;7945;48.816;11.506;2024-03-07T00:42:48;7.30;99.90
15690;DHT22;7945;48.816;11.506;2024-03-07T00:45:15;7.30;99.90
15690;DHT22;7945;48.816;11.506;2024-03-07T00:47:41;7.20;99.90
15690;DHT22;7945;48.816;11.506;2024-03-07T00:50:09;7.20;99.90
15690;DHT22;7945;48.816;11.506;2024-03-07T00:52:36;7.20;99.90
15690;DHT22;7945;48.816;11.506;2024-03-07T00:55:03;7.10;99.90
15690;DHT22;7945;48.816;11.506;2024-03-07T00:57:30;7.10;99.90
15690;DHT22;7945;48.816;11.506;2024-03-07T00:59:58;7.10;99.90
15690;DHT22;7945;48.816;11.506;2024-03-07T01:02:25;7.00;99.90
15690;DHT22;7945;48.816;11.506;2024-03-07T01:04:52;7.00;99.90
15690;DHT22;7945;48.816;11.506;2024-03-07T01:07:18;7.00;99.90
15690;DHT22;7945;48.816;11.506;2024-03-07T01:09:46;6.90;99.90
15690;DHT22;7945;48.816;11.506;2024-03-07T01:12:13;6.90;99.90
15690;DHT22;7945;48.816;11.506;2024-03-07T01:14:40;6.80;99.90
15690;DHT22;7945;48.816;11.506;2024-03-07T01:17:08;6.80;99.90
15690;DHT22;7945;48.816;11.506;2024-03-07T01:19:35;6.80;99.90
15690;DHT22;7945;48.816;11.506;2024-03-07T01:22:03;6.80;99.90
15690;DHT22;7945;48.816;11.506;2024-03-07T01:24:31;6.80;99.90
15690;DHT22;7945;48.816;11.506;2024-03-07T01:26:59;6.70;99.90
15690;DHT22;7945;48.816;11.506;2024-03-07T01:29:26;6.70;99.90
15690;DHT22;7945;48.816;11.506;2024-03-07T01:31:53;6.60;99.90
15690;DHT22;7945;48.816;11.506;2024-03-07T01:34:21;6.60;99.90
15690;DHT22;7945;48.816;11.506;2024-03-07T01:36:48;6.60;99.90
15690;DHT22;7945;48.816;11.506;2024-03-07T01:39:15;6.60;99.90
15690;DHT22;7945;48.816;11.506;2024-03-07T01:41:42;6.60;99.90
15690;DHT22;7945;48.816;11.506;2024-03-07T01:44:09;6.60;99.90
15690;DHT22;7945;48.816;11.506;2024-03-07T01:46:35;6.60;99.90
15690;DHT22;7945;48.816;11.506;2024-03-07T01:49:02;6.50;99.90
15690;DHT22;7945;48.816;11.506;2024-03-07T01:51:34;6.50;99.90
15690;DHT22;7945;48.816;11.506;2024-03-07T01:54:01;6.50;99.90
15690;DHT22;7945;48.816;11.506;2024-03-07T01:56:29;6.50;99.90
15690;DHT22;7945;48.816;11.506;2024-03-07T01:58:56;6.40;99.90
15690;DHT22;7945;48.816;11.506;2024-03-07T02:01:24;6.40;99.90
15690;DHT22;7945;48.816;11.506;2024-03-07T02:03:51;6.40;99.90
15690;DHT22;7945;48.816;11.506;2024-03-07T02:06:18;6.40;99.90
15690;DHT22;7945;48.816;11.506;2024-03-07T02:08:46;6.40;99.90
15690;DHT22;7945;48.816;11.506;2024-03-07T02:11:13;6.30;99.90
15690;DHT22;7945;48.816;11.506;2024-03-07T02:13:40;6.30;99.90
15690;DHT22;7945;48.816;11.506;2024-03-07T02:16:07;6.30;99.90
15690;DHT22;7945;48.816;11.506;2024-03-07T02:18:35;6.30;99.90
15690;DHT22;7945;48.816;11.506;2024-03-07T02:21:07;6.20;99.90
15690;DHT22;7945;48.816;11.506;2024-03-07T02:23:34;6.20;99.90
15690;DHT22;7945;48.816;11.506;2024-03-07T02:26:01;6.20;99.90
15690;DHT22;7945;48.816;11.506;2024-03-07T02:28:28;6.10;99.90
15690;DHT22;7945;48.816;11.506;2024-03-07T02:30:55;6.10;99.90
15690;DHT22;7945;48.816;11.506;2024-03-07T02:33:22;6.10;99.90
15690;DHT22;7945;48.816;11.506;2024-03-07T02:35:49;6.10;99.90
15690;DHT22;7945;48.816;11.506;2024-03-07T02:38:17;6.10;99.90
15690;DHT22;7945;48.816;11.506;2024-03-07T02:40:45;6.00;99.90
15690;DHT22;7945;48.816;11.506;2024-03-07T02:43:12;5.90;99.90
15690;DHT22;7945;48.816;11.506;2024-03-07T02:45:39;5.90;99.90
15690;DHT22;7945;48.816;11.506;2024-03-07T02:48:06;5.90;99.90
15690;DHT22;7945;48.816;11.506;2024-03-07T02:50:34;5.80;99.90
15690;DHT22;7945;48.816;11.506;2024-03-07T02:53:03;5.80;99.90
15690;DHT22;7945;48.816;11.506;2024-03-07T02:55:31;5.70;99.90
15690;DHT22;7945;48.816;11.506;2024-03-07T02:57:58;5.70;99.90
15690;DHT22;7945;48.816;11.506;2024-03-07T03:00:25;5.70;99.90
15690;DHT22;7945;48.816;11.506;2024-03-07T03:02:55;5.70;99.90
15690;DHT22;7945;48.816;11.506;2024-03-07T03:05:22;5.60;99.90
15690;DHT22;7945;48.816;11.506;2024-03-07T03:07:50;5.60;99.90
15690;DHT22;7945;48.816;11.506;2024-03-07T03:10:20;5.60;99.90
15690;DHT22;7945;48.816;11.506;2024-03-07T03:12:52;6.60;99.90
15690;DHT22;7945;48.816;11.506;2024-03-07T03:15:19;5.60;99.90
15690;DHT22;7945;48.816;11.506;2024-03-07T03:17:46;5.60;99.90
15690;DHT22;7945;48.816;11.506;2024-03-07T03:20:14;5.60;99.90
15690;DHT22;7945;48.816;11.506;2024-03-07T03:22:50;5.60;99.90
15690;DHT22;7945;48.816;11.506;2024-03-07T03:25:18;5.60;99.90
15690;DHT22;7945;48.816;11.506;2024-03-07T03:27:44;5.60;99.90
15690;DHT22;7945;48.816;11.506;2024-03-07T03:30:14;5.60;99.90
15690;DHT22;7945;48.816;11.506;2024-03-07T03:32:41;5.60;99.90
15690;DHT22;7945;48.816;11.506;2024-03-07T03:35:08;5.60;99.90
15690;DHT22;7945;48.816;11.506;2024-03-07T03:37:39;5.60;99.90
15690;DHT22;7945;48.816;11.506;2024-03-07T03:40:07;5.60;99.90
15690;DHT22;7945;48.816;11.506;2024-03-07T03:42:36;5.60;99.90
15690;DHT22;7945;48.816;11.506;2024-03-07T03:45:03;5.60;99.90
15690;DHT22;7945;48.816;11.506;2024-03-07T03:47:33;5.70;99.90
15690;DHT22;7945;48.816;11.506;2024-03-07T03:50:01;5.70;99.90
15690;DHT22;7945;48.816;11.506;2024-03-07T03:52:28;5.70;99.90
15690;DHT22;7945;48.816;11.506;2024-03-07T03:54:56;5.70;99.90
15690;DHT22;7945;48.816;11.506;2024-03-07T03:57:23;5.70;99.90
15690;DHT22;7945;48.816;11.506;2024-03-07T03:59:49;5.70;99.90
15690;DHT22;7945;48.816;11.506;2024-03-07T04:02:16;5.70;99.90
15690;DHT22;7945;48.816;11.506;2024-03-07T04:04:44;5.70;99.90
15690;DHT22;7945;48.816;11.506;2024-03-07T04:07:11;5.70;99.90
15690;DHT22;7945;48.816;11.506;2024-03-07T04:09:38;5.80;99.90
15690;DHT22;7945;48.816;11.506;2024-03-07T04:12:06;5.80;99.90
15690;DHT22;7945;48.816;11.506;2024-03-07T04:14:36;5.80;99.90
15690;DHT22;7945;48.816;11.506;2024-03-07T04:17:03;5.80;99.90
15690;DHT22;7945;48.816;11.506;2024-03-07T04:19:32;5.80;99.90
15690;DHT22;7945;48.816;11.506;2024-03-07T04:22:01;5.80;99.90
15690;DHT22;7945;48.816;11.506;2024-03-07T04:24:29;5.80;99.90
15690;DHT22;7945;48.816;11.506;2024-03-07T04:26:57;6.10;99.90
15690;DHT22;7945;48.816;11.506;2024-03-07T04:29:24;5.80;99.90
15690;DHT22;7945;48.816;11.506;2024-03-07T04:31:51;5.80;99.90
15690;DHT22;7945;48.816;11.506;2024-03-07T04:34:17;5.80;99.90
15690;DHT22;7945;48.816;11.506;2024-03-07T04:36:44;5.80;99.90
15690;DHT22;7945;48.816;11.506;2024-03-07T04:39:12;5.70;99.90
15690;DHT22;7945;48.816;11.506;2024-03-07T04:41:50;5.70;99.90
15690;DHT22;7945;48.816;11.506;2024-03-07T04:44:18;5.70;99.90
15690;DHT22;7945;48.816;11.506;2024-03-07T04:46:44;5.70;99.90
15690;DHT22;7945;48.816;11.506;2024-03-07T04:49:11;5.70;99.90
15690;DHT22;7945;48.816;11.506;2024-03-07T04:51:39;5.70;99.90
15690;DHT22;7945;48.816;11.506;2024-03-07T04:54:06;5.70;99.90
15690;DHT22;7945;48.816;11.506;2024-03-07T04:56:34;5.70;99.90
15690;DHT22;7945;48.816;11.506;2024-03-07T04:59:01;5.70;99.90
15690;DHT22;7945;48.816;11.506;2024-03-07T05:01:27;5.70;99.90
15690;DHT22;7945;48.816;11.506;2024-03-07T05:03:56;5.60;99.90
15690;DHT22;7945;48.816;11.506;2024-03-07T05:06:23;5.60;99.90
15690;DHT22;7945;48.816;11.506;2024-03-07T05:08:50;5.60;99.90
15690;DHT22;7945;48.816;11.506;2024-03-07T05:11:16;5.60;99.90
15690;DHT22;7945;48.816;11.506;2024-03-07T05:13:45;5.50;99.90
15690;DHT22;7945;48.816;11.506;2024-03-07T05:16:11;5.50;99.90
15690;DHT22;7945;48.816;11.506;2024-03-07T05:18:38;5.50;99.90
15690;DHT22;7945;48.816;11.506;2024-03-07T05:21:06;5.50;99.90
15690;DHT22;7945;48.816;11.506;2024-03-07T05:23:46;5.40;99.90
15690;DHT22;7945;48.816;11.506;2024-03-07T05:26:14;5.40;99.90
15690;DHT22;7945;48.816;11.506;2024-03-07T05:28:41;5.30;99.90
15690;DHT22;7945;48.816;11.506;2024-03-07T05:31:09;5.30;99.90
15690;DHT22;7945;48.816;11.506;2024-03-07T05:33:37;5.20;99.90
15690;DHT22;7945;48.816;11.506;2024-03-07T05:36:06;5.10;99.90
15690;DHT22;7945;48.816;11.506;2024-03-07T05:38:40;5.10;99.90
15690;DHT22;7945;48.816;11.506;2024-03-07T05:41:08;5.10;99.90
15690;DHT22;7945;48.816;11.506;2024-03-07T05:43:36;5.10;99.90
15690;DHT22;7945;48.816;11.506;2024-03-07T05:46:03;5.10;99.90
15690;DHT22;7945;48.816;11.506;2024-03-07T05:48:33;5.10;99.90
15690;DHT22;7945;48.816;11.506;2024-03-07T05:51:00;5.10;99.90
15690;DHT22;7945;48.816;11.506;2024-03-07T05:53:27;5.10;99.90
15690;DHT22;7945;48.816;11.506;2024-03-07T05:55:54;5.10;99.90
15690;DHT22;7945;48.816;11.506;2024-03-07T05:58:20;5.00;99.90
15690;DHT22;7945;48.816;11.506;2024-03-07T06:00:47;5.00;99.90
15690;DHT22;7945;48.816;11.506;2024-03-07T06:03:15;5.00;99.90
15690;DHT22;7945;48.816;11.506;2024-03-07T06:05:44;5.10;99.90
15690;DHT22;7945;48.816;11.506;2024-03-07T06:08:14;5.10;99.90
15690;DHT22;7945;48.816;11.506;2024-03-07T06:10:41;5.10;99.90
15690;DHT22;7945;48.816;11.506;2024-03-07T06:16:18;5.10;99.90
15690;DHT22;7945;48.816;11.506;2024-03-07T06:18:45;5.10;99.90
15690;DHT22;7945;48.816;11.506;2024-03-07T06:21:12;5.20;99.90
15690;DHT22;7945;48.816;11.506;2024-03-07T06:23:40;5.20;99.90
15690;DHT22;7945;48.816;11.506;2024-03-07T06:26:12;5.20;99.90
15690;DHT22;7945;48.816;11.506;2024-03-07T06:28:42;5.30;99.90
15690;DHT22;7945;48.816;11.506;2024-03-07T06:31:10;5.30;99.90
15690;DHT22;7945;48.816;11.506;2024-03-07T06:33:38;5.30;99.90
15690;DHT22;7945;48.816;11.506;2024-03-07T06:36:06;5.30;99.90
15690;DHT22;7945;48.816;11.506;2024-03-07T06:38:34;5.30;99.90
15690;DHT22;7945;48.816;11.506;2024-03-07T06:41:01;5.30;99.90
15690;DHT22;7945;48.816;11.506;2024-03-07T06:43:27;5.30;99.90
15690;DHT22;7945;48.816;11.506;2024-03-07T06:45:55;5.30;99.90
15690;DHT22;7945;48.816;11.506;2024-03-07T06:48:22;5.30;99.90
15690;DHT22;7945;48.816;11.506;2024-03-07T06:50:50;5.30;99.90
15690;DHT22;7945;48.816;11.506;2024-03-07T06:53:18;5.30;99.90
15690;DHT22;7945;48.816;11.506;2024-03-07T06:55:45;5.30;99.90
15690;DHT22;7945;48.816;11.506;2024-03-07T06:58:14;5.30;99.90
15690;DHT22;7945;48.816;11.506;2024-03-07T07:00:42;5.30;99.90
15690;DHT22;7945;48.816;11.506;2024-03-07T07:03:10;5.30;99.90
15690;DHT22;7945;48.816;11.506;2024-03-07T07:05:38;5.30;99.90
15690;DHT22;7945;48.816;11.506;2024-03-07T07:08:07;5.30;99.90
15690;DHT22;7945;48.816;11.506;2024-03-07T07:10:34;5.30;99.90
15690;DHT22;7945;48.816;11.506;2024-03-07T07:13:02;5.20;99.90
15690;DHT22;7945;48.816;11.506;2024-03-07T07:15:30;5.20;99.90
15690;DHT22;7945;48.816;11.506;2024-03-07T07:17:56;5.20;99.90
15690;DHT22;7945;48.816;11.506;2024-03-07T07:20:24;5.30;99.90
15690;DHT22;7945;48.816;11.506;2024-03-07T07:22:51;6.90;99.90
15690;DHT22;7945;48.816;11.506;2024-03-07T07:25:20;5.40;99.90
15690;DHT22;7945;48.816;11.506;2024-03-07T07:27:48;5.40;99.90
15690;DHT22;7945;48.816;11.506;2024-03-07T07:30:16;5.50;99.90
15690;DHT22;7945;48.816;11.506;2024-03-07T07:32:44;5.50;99.90
15690;DHT22;7945;48.816;11.506;2024-03-07T07:35:11;5.60;99.90
15690;DHT22;7945;48.816;11.506;2024-03-07T07:37:38;5.70;99.90
15690;DHT22;7945;48.816;11.506;2024-03-07T07:40:06;5.80;99.90
15690;DHT22;7945;48.816;11.506;2024-03-07T07:42:36;5.80;99.90
15690;DHT22;7945;48.816;11.506;2024-03-07T07:45:06;5.90;99.90
15690;DHT22;7945;48.816;11.506;2024-03-07T07:47:37;6.00;99.90
15690;DHT22;7945;48.816;11.506;2024-03-07T07:50:07;6.10;99.90
15690;DHT22;7945;48.816;11.506;2024-03-07T07:52:40;6.10;99.90
15690;DHT22;7945;48.816;11.506;2024-03-07T07:55:07;6.10;99.90
15690;DHT22;7945;48.816;11.506;2024-03-07T07:57:41;6.10;99.90
15690;DHT22;7945;48.816;11.506;2024-03-07T08:00:10;6.10;99.90
15690;DHT22;7945;48.816;11.506;2024-03-07T08:02:37;6.20;99.90
15690;DHT22;7945;48.816;11.506;2024-03-07T08:05:04;6.10;99.90
15690;DHT22;7945;48.816;11.506;2024-03-07T08:07:31;6.00;99.90
15690;DHT22;7945;48.816;11.506;2024-03-07T08:09:58;6.00;99.90
15690;DHT22;7945;48.816;11.506;2024-03-07T08:12:25;6.00;99.90
15690;DHT22;7945;48.816;11.506;2024-03-07T08:14:53;6.00;99.90
15690;DHT22;7945;48.816;11.506;2024-03-07T08:17:20;5.90;99.90
15690;DHT22;7945;48.816;11.506;2024-03-07T08:19:48;5.90;99.90
15690;DHT22;7945;48.816;11.506;2024-03-07T08:22:14;5.90;99.90
15690;DHT22;7945;48.816;11.506;2024-03-07T08:24:43;6.00;99.90
15690;DHT22;7945;48.816;11.506;2024-03-07T08:27:09;6.10;99.90
15690;DHT22;7945;48.816;11.506;2024-03-07T08:29:37;6.10;99.90
15690;DHT22;7945;48.816;11.506;2024-03-07T08:32:07;6.10;99.90
15690;DHT22;7945;48.816;11.506;2024-03-07T08:34:33;6.10;99.90
15690;DHT22;7945;48.816;11.506;2024-03-07T08:37:00;6.10;99.90
15690;DHT22;7945;48.816;11.506;2024-03-07T08:39:29;6.10;99.90
15690;DHT22;7945;48.816;11.506;2024-03-07T08:41:56;6.20;99.90
15690;DHT22;7945;48.816;11.506;2024-03-07T08:44:22;6.30;99.90
15690;DHT22;7945;48.816;11.506;2024-03-07T08:46:49;6.30;99.90
15690;DHT22;7945;48.816;11.506;2024-03-07T08:49:17;6.40;99.90
15690;DHT22;7945;48.816;11.506;2024-03-07T08:51:44;6.40;99.90
15690;DHT22;7945;48.816;11.506;2024-03-07T08:54:11;6.50;99.90
15690;DHT22;7945;48.816;11.506;2024-03-07T08:56:37;6.50;99.90
15690;DHT22;7945;48.816;11.506;2024-03-07T08:59:04;6.60;99.90
15690;DHT22;7945;48.816;11.506;2024-03-07T09:01:31;6.70;99.90
15690;DHT22;7945;48.816;11.506;2024-03-07T09:03:59;6.80;99.90
15690;DHT22;7945;48.816;11.506;2024-03-07T09:06:27;6.80;99.90
15690;DHT22;7945;48.816;11.506;2024-03-07T09:08:54;7.00;99.90
15690;DHT22;7945;48.816;11.506;2024-03-07T09:11:21;7.00;99.90
15690;DHT22;7945;48.816;11.506;2024-03-07T09:13:48;6.90;99.90
15690;DHT22;7945;48.816;11.506;2024-03-07T09:16:15;6.90;99.90
15690;DHT22;7945;48.816;11.506;2024-03-07T09:18:41;7.00;99.90
15690;DHT22;7945;48.816;11.506;2024-03-07T09:21:08;7.10;99.90
15690;DHT22;7945;48.816;11.506;2024-03-07T09:23:37;7.20;99.90
15690;DHT22;7945;48.816;11.506;2024-03-07T09:26:03;7.30;99.90
15690;DHT22;7945;48.816;11.506;2024-03-07T09:28:32;7.50;99.90
15690;DHT22;7945;48.816;11.506;2024-03-07T09:30:59;7.60;99.90
15690;DHT22;7945;48.816;11.506;2024-03-07T09:33:26;7.70;99.90
15690;DHT22;7945;48.816;11.506;2024-03-07T09:35:52;7.60;99.90
15690;DHT22;7945;48.816;11.506;2024-03-07T09:38:19;7.60;99.90
15690;DHT22;7945;48.816;11.506;2024-03-07T09:40:47;7.60;99.90
15690;DHT22;7945;48.816;11.506;2024-03-07T09:43:15;7.60;99.90
15690;DHT22;7945;48.816;11.506;2024-03-07T09:45:44;7.70;99.90
15690;DHT22;7945;48.816;11.506;2024-03-07T09:48:13;7.70;99.90
15690;DHT22;7945;48.816;11.506;2024-03-07T09:50:40;7.60;99.90
15690;DHT22;7945;48.816;11.506;2024-03-07T09:53:09;7.50;99.90
15690;DHT22;7945;48.816;11.506;2024-03-07T09:55:36;7.60;99.90
15690;DHT22;7945;48.816;11.506;2024-03-07T09:58:05;7.40;99.90
15690;DHT22;7945;48.816;11.506;2024-03-07T10:00:36;7.60;99.90
15690;DHT22;7945;48.816;11.506;2024-03-07T10:03:07;7.50;99.90
15690;DHT22;7945;48.816;11.506;2024-03-07T10:05:34;7.60;99.90
15690;DHT22;7945;48.816;11.506;2024-03-07T10:08:03;7.80;99.90
15690;DHT22;7945;48.816;11.506;2024-03-07T10:10:30;8.00;99.90
15690;DHT22;7945;48.816;11.506;2024-03-07T10:12:57;8.10;99.90
15690;DHT22;7945;48.816;11.506;2024-03-07T10:15:28;8.10;99.90
15690;DHT22;7945;48.816;11.506;2024-03-07T10:17:55;8.20;99.90
15690;DHT22;7945;48.816;11.506;2024-03-07T10:20:22;8.20;99.90
15690;DHT22;7945;48.816;11.506;2024-03-07T10:22:50;8.20;99.60
15690;DHT22;7945;48.816;11.506;2024-03-07T10:25:17;8.10;99.90
15690;DHT22;7945;48.816;11.506;2024-03-07T10:27:46;8.10;99.80
15690;DHT22;7945;48.816;11.506;2024-03-07T10:30:14;8.10;99.90
15690;DHT22;7945;48.816;11.506;2024-03-07T10:32:47;8.10;99.90
15690;DHT22;7945;48.816;11.506;2024-03-07T10:35:20;8.10;99.90
15690;DHT22;7945;48.816;11.506;2024-03-07T10:37:48;8.10;99.90
15690;DHT22;7945;48.816;11.506;2024-03-07T10:40:15;8.00;99.90
15690;DHT22;7945;48.816;11.506;2024-03-07T10:42:45;8.00;99.90
15690;DHT22;7945;48.816;11.506;2024-03-07T10:45:18;8.00;99.90
15690;DHT22;7945;48.816;11.506;2024-03-07T10:47:54;8.10;99.90
15690;DHT22;7945;48.816;11.506;2024-03-07T10:50:33;8.20;99.90
15690;DHT22;7945;48.816;11.506;2024-03-07T10:53:07;8.20;99.90
15690;DHT22;7945;48.816;11.506;2024-03-07T10:55:40;8.30;99.90
15690;DHT22;7945;48.816;11.506;2024-03-07T10:58:18;8.20;99.90
15690;DHT22;7945;48.816;11.506;2024-03-07T11:00:51;8.20;99.90
15690;DHT22;7945;48.816;11.506;2024-03-07T11:03:21;8.20;99.80
15690;DHT22;7945;48.816;11.506;2024-03-07T11:05:48;8.20;99.90
15690;DHT22;7945;48.816;11.506;2024-03-07T11:08:16;8.20;99.90
15690;DHT22;7945;48.816;11.506;2024-03-07T11:10:44;8.20;99.90
15690;DHT22;7945;48.816;11.506;2024-03-07T11:13:14;8.20;99.90
15690;DHT22;7945;48.816;11.506;2024-03-07T11:15:44;8.20;99.90
15690;DHT22;7945;48.816;11.506;2024-03-07T11:18:13;8.30;99.90
15690;DHT22;7945;48.816;11.506;2024-03-07T11:20:41;8.40;99.90
15690;DHT22;7945;48.816;11.506;2024-03-07T11:23:26;8.50;99.90
15690;DHT22;7945;48.816;11.506;2024-03-07T11:25:54;8.60;99.80
15690;DHT22;7945;48.816;11.506;2024-03-07T11:28:28;8.60;99.90
15690;DHT22;7945;48.816;11.506;2024-03-07T11:31:07;8.60;99.70
15690;DHT22;7945;48.816;11.506;2024-03-07T11:33:36;8.50;99.90
15690;DHT22;7945;48.816;11.506;2024-03-07T11:36:07;8.50;99.90
15690;DHT22;7945;48.816;11.506;2024-03-07T11:38:35;8.70;99.60
15690;DHT22;7945;48.816;11.506;2024-03-07T11:41:04;8.80;99.00
15690;DHT22;7945;48.816;11.506;2024-03-07T11:43:31;8.90;99.30
15690;DHT22;7945;48.816;11.506;2024-03-07T11:45:59;8.90;99.10
15690;DHT22;7945;48.816;11.506;2024-03-07T11:48:26;9.10;98.80
15690;DHT22;7945;48.816;11.506;2024-03-07T11:50:53;9.30;98.60
15690;DHT22;7945;48.816;11.506;2024-03-07T11:53:22;9.40;98.00
15690;DHT22;7945;48.816;11.506;2024-03-07T11:55:48;9.50;98.30
15690;DHT22;7945;48.816;11.506;2024-03-07T11:58:17;9.50;98.70
15690;DHT22;7945;48.816;11.506;2024-03-07T12:00:47;9.40;98.40
15690;DHT22;7945;48.816;11.506;2024-03-07T12:03:15;9.30;98.60
15690;DHT22;7945;48.816;11.506;2024-03-07T12:05:44;9.20;98.60
15690;DHT22;7945;48.816;11.506;2024-03-07T12:08:12;9.10;98.90
15690;DHT22;7945;48.816;11.506;2024-03-07T12:10:41;8.90;99.20
15690;DHT22;7945;48.816;11.506;2024-03-07T12:13:09;8.90;99.40
15690;DHT22;7945;48.816;11.506;2024-03-07T12:15:37;8.80;99.50
15690;DHT22;7945;48.816;11.506;2024-03-07T12:18:05;8.70;99.70
15690;DHT22;7945;48.816;11.506;2024-03-07T12:20:36;8.60;99.70
15690;DHT22;7945;48.816;11.506;2024-03-07T12:23:04;8.60;99.90
15690;DHT22;7945;48.816;11.506;2024-03-07T12:25:34;8.50;99.80
15690;DHT22;7945;48.816;11.506;2024-03-07T12:28:07;8.40;99.80
15690;DHT22;7945;48.816;11.506;2024-03-07T12:30:47;8.40;99.70
15690;DHT22;7945;48.816;11.506;2024-03-07T12:33:15;8.40;99.90
15690;DHT22;7945;48.816;11.506;2024-03-07T12:35:42;8.40;99.80
15690;DHT22;7945;48.816;11.506;2024-03-07T12:38:10;8.50;99.90
15690;DHT22;7945;48.816;11.506;2024-03-07T12:40:39;8.50;99.90
15690;DHT22;7945;48.816;11.506;2024-03-07T12:43:17;8.40;99.80
15690;DHT22;7945;48.816;11.506;2024-03-07T12:45:47;8.30;99.70
15690;DHT22;7945;48.816;11.506;2024-03-07T12:48:14;8.30;99.90
15690;DHT22;7945;48.816;11.506;2024-03-07T12:50:42;8.20;99.90
15690;DHT22;7945;48.816;11.506;2024-03-07T12:53:12;8.10;99.90
15690;DHT22;7945;48.816;11.506;2024-03-07T12:55:39;8.10;99.90
15690;DHT22;7945;48.816;11.506;2024-03-07T12:58:08;8.10;99.90
15690;DHT22;7945;48.816;11.506;2024-03-07T13:00:38;8.10;99.90
15690;DHT22;7945;48.816;11.506;2024-03-07T13:03:07;8.20;99.90
15690;DHT22;7945;48.816;11.506;2024-03-07T13:05:34;8.20;99.90
15690;DHT22;7945;48.816;11.506;2024-03-07T13:08:01;8.20;99.90
15690;DHT22;7945;48.816;11.506;2024-03-07T13:10:27;8.20;99.90
15690;DHT22;7945;48.816;11.506;2024-03-07T13:12:55;8.30;99.90
15690;DHT22;7945;48.816;11.506;2024-03-07T13:15:22;8.30;99.90
15690;DHT22;7945;48.816;11.506;2024-03-07T13:17:51;8.30;99.90
15690;DHT22;7945;48.816;11.506;2024-03-07T13:20:20;8.40;99.90
15690;DHT22;7945;48.816;11.506;2024-03-07T13:22:52;8.40;99.90
15690;DHT22;7945;48.816;11.506;2024-03-07T13:25:22;8.40;99.90
15690;DHT22;7945;48.816;11.506;2024-03-07T13:27:56;8.30;99.90
15690;DHT22;7945;48.816;11.506;2024-03-07T13:30:25;8.40;99.90
15690;DHT22;7945;48.816;11.506;2024-03-07T13:32:55;8.40;99.80
15690;DHT22;7945;48.816;11.506;2024-03-07T13:35:23;8.30;99.50
15690;DHT22;7945;48.816;11.506;2024-03-07T13:37:51;8.40;99.90
15690;DHT22;7945;48.816;11.506;2024-03-07T13:40:21;8.40;99.60
15690;DHT22;7945;48.816;11.506;2024-03-07T13:42:52;8.40;99.80
15690;DHT22;7945;48.816;11.506;2024-03-07T13:45:21;8.30;99.30
15690;DHT22;7945;48.816;11.506;2024-03-07T13:47:48;8.30;99.80
15690;DHT22;7945;48.816;11.506;2024-03-07T13:50:17;8.30;99.60
15690;DHT22;7945;48.816;11.506;2024-03-07T13:52:45;8.40;99.60
15690;DHT22;7945;48.816;11.506;2024-03-07T13:55:31;8.40;99.70
15690;DHT22;7945;48.816;11.506;2024-03-07T13:58:02;8.40;99.90
15690;DHT22;7945;48.816;11.506;2024-03-07T14:00:40;8.40;99.50
15690;DHT22;7945;48.816;11.506;2024-03-07T14:03:31;8.40;99.80
15690;DHT22;7945;48.816;11.506;2024-03-07T14:06:04;8.40;99.80
15690;DHT22;7945;48.816;11.506;2024-03-07T14:08:49;8.40;99.20
15690;DHT22;7945;48.816;11.506;2024-03-07T14:11:54;8.40;99.00
15690;DHT22;7945;48.816;11.506;2024-03-07T14:14:41;8.40;99.20
15690;DHT22;7945;48.816;11.506;2024-03-07T14:17:51;8.40;99.00
15690;DHT22;7945;48.816;11.506;2024-03-07T14:20:51;8.40;99.10
15690;DHT22;7945;48.816;11.506;2024-03-07T14:23:35;8.50;99.10
15690;DHT22;7945;48.816;11.506;2024-03-07T14:29:24;8.50;99.00
15690;DHT22;7945;48.816;11.506;2024-03-07T14:31:53;8.60;99.00
15690;DHT22;7945;48.816;11.506;2024-03-07T14:34:29;8.50;98.90
15690;DHT22;7945;48.816;11.506;2024-03-07T14:37:09;8.50;99.30
15690;DHT22;7945;48.816;11.506;2024-03-07T14:39:39;8.50;99.40
15690;DHT22;7945;48.816;11.506;2024-03-07T14:42:07;8.50;99.20
15690;DHT22;7945;48.816;11.506;2024-03-07T14:44:39;8.40;99.40
15690;DHT22;7945;48.816;11.506;2024-03-07T14:47:07;8.50;99.40
15690;DHT22;7945;48.816;11.506;2024-03-07T14:49:36;8.50;99.60
15690;DHT22;7945;48.816;11.506;2024-03-07T14:52:05;8.40;99.50
15690;DHT22;7945;48.816;11.506;2024-03-07T14:54:37;8.40;99.10
15690;DHT22;7945;48.816;11.506;2024-03-07T14:57:07;8.40;98.60
15690;DHT22;7945;48.816;11.506;2024-03-07T14:59:36;8.40;98.90
15690;DHT22;7945;48.816;11.506;2024-03-07T15:02:03;8.40;98.90
15690;DHT22;7945;48.816;11.506;2024-03-07T15:04:36;8.30;98.70
15690;DHT22;7945;48.816;11.506;2024-03-07T15:07:03;8.30;99.00
15690;DHT22;7945;48.816;11.506;2024-03-07T15:09:30;8.30;99.00
15690;DHT22;7945;48.816;11.506;2024-03-07T15:11:59;8.30;98.90
15690;DHT22;7945;48.816;11.506;2024-03-07T15:14:27;8.30;98.70
15690;DHT22;7945;48.816;11.506;2024-03-07T15:16:54;8.30;98.40
15690;DHT22;7945;48.816;11.506;2024-03-07T15:19:21;8.30;98.80
15690;DHT22;7945;48.816;11.506;2024-03-07T15:21:48;8.30;98.90
15690;DHT22;7945;48.816;11.506;2024-03-07T15:24:18;8.30;98.90
15690;DHT22;7945;48.816;11.506;2024-03-07T15:26:46;8.20;99.00
15690;DHT22;7945;48.816;11.506;2024-03-07T15:29:15;8.30;99.10
15690;DHT22;7945;48.816;11.506;2024-03-07T15:31:48;8.30;99.10
15690;DHT22;7945;48.816;11.506;2024-03-07T15:34:16;8.30;98.90
15690;DHT22;7945;48.816;11.506;2024-03-07T15:36:43;8.30;98.70
15690;DHT22;7945;48.816;11.506;2024-03-07T15:39:10;8.20;98.70
15690;DHT22;7945;48.816;11.506;2024-03-07T15:41:45;8.20;98.60
15690;DHT22;7945;48.816;11.506;2024-03-07T15:44:12;8.20;98.30
15690;DHT22;7945;48.816;11.506;2024-03-07T15:46:38;8.20;98.40
15690;DHT22;7945;48.816;11.506;2024-03-07T15:49:07;8.20;98.40
15690;DHT22;7945;48.816;11.506;2024-03-07T15:51:34;8.10;98.40
15690;DHT22;7945;48.816;11.506;2024-03-07T15:54:01;8.10;98.50
15690;DHT22;7945;48.816;11.506;2024-03-07T15:56:30;8.00;98.40
15690;DHT22;7945;48.816;11.506;2024-03-07T15:58:57;8.00;98.30
15690;DHT22;7945;48.816;11.506;2024-03-07T16:01:23;8.00;98.50